Terminal Aerodrome Forecast
Issued by NWS

Home | Current Version | Previous Version | Text Only | Print | Product List | Glossary On
Versions: 1 2 3 4 5 6 7 8 9 10 11 12 13 14
000
FTUS43 KAPX 182327
TAFPLN
TAF
KPLN 182327Z 1900/1924 08006KT P6SM SKC
     FM190100 00000KT P6SM SKC
     FM190500 10003KT P6SM SCT250 WS015/13032KT
     FM191400 11012G20KT P6SM BKN250=

USA.gov is the U.S. government's official web portal to all federal, state and local government web resources and services.